sensor_id;sensor_type;location;lat;lon;timestamp;P1;durP1;ratioP1;P2;durP2;ratioP2
7031;SDS011;3557;48.880;8.328;2023-03-24T00:00:31;2.78;;;2.00;;
7031;SDS011;3557;48.880;8.328;2023-03-24T00:02:59;3.15;;;2.05;;
7031;SDS011;3557;48.880;8.328;2023-03-24T00:05:27;3.17;;;2.10;;
7031;SDS011;3557;48.880;8.328;2023-03-24T00:07:56;2.95;;;1.65;;
7031;SDS011;3557;48.880;8.328;2023-03-24T00:10:26;2.38;;;1.90;;
7031;SDS011;3557;48.880;8.328;2023-03-24T00:12:54;4.05;;;1.98;;
7031;SDS011;3557;48.880;8.328;2023-03-24T00:15:23;2.13;;;1.88;;
7031;SDS011;3557;48.880;8.328;2023-03-24T00:17:50;2.88;;;1.90;;
7031;SDS011;3557;48.880;8.328;2023-03-24T00:20:20;5.60;;;3.20;;
7031;SDS011;3557;48.880;8.328;2023-03-24T00:22:50;3.85;;;2.03;;
7031;SDS011;3557;48.880;8.328;2023-03-24T00:25:24;2.25;;;2.00;;
7031;SDS011;3557;48.880;8.328;2023-03-24T00:27:53;2.28;;;2.08;;
7031;SDS011;3557;48.880;8.328;2023-03-24T00:30:21;4.45;;;2.30;;
7031;SDS011;3557;48.880;8.328;2023-03-24T00:32:50;2.58;;;2.13;;
7031;SDS011;3557;48.880;8.328;2023-03-24T00:35:18;4.82;;;2.47;;
7031;SDS011;3557;48.880;8.328;2023-03-24T00:37:45;4.97;;;2.45;;
7031;SDS011;3557;48.880;8.328;2023-03-24T00:40:15;3.83;;;2.22;;
7031;SDS011;3557;48.880;8.328;2023-03-24T00:42:46;4.20;;;2.40;;
7031;SDS011;3557;48.880;8.328;2023-03-24T00:45:15;3.17;;;2.28;;
7031;SDS011;3557;48.880;8.328;2023-03-24T00:47:47;6.90;;;2.25;;
7031;SDS011;3557;48.880;8.328;2023-03-24T00:50:18;6.75;;;2.75;;
7031;SDS011;3557;48.880;8.328;2023-03-24T00:52:50;4.90;;;2.70;;
7031;SDS011;3557;48.880;8.328;2023-03-24T00:55:18;5.03;;;2.45;;
7031;SDS011;3557;48.880;8.328;2023-03-24T00:57:48;3.28;;;2.60;;
7031;SDS011;3557;48.880;8.328;2023-03-24T01:00:17;4.97;;;2.78;;
7031;SDS011;3557;48.880;8.328;2023-03-24T01:02:46;4.07;;;2.40;;
7031;SDS011;3557;48.880;8.328;2023-03-24T01:05:18;5.88;;;2.88;;
7031;SDS011;3557;48.880;8.328;2023-03-24T01:07:47;6.25;;;2.80;;
7031;SDS011;3557;48.880;8.328;2023-03-24T01:10:17;4.65;;;3.00;;
7031;SDS011;3557;48.880;8.328;2023-03-24T01:12:52;4.78;;;2.75;;
7031;SDS011;3557;48.880;8.328;2023-03-24T01:15:20;3.00;;;2.13;;
7031;SDS011;3557;48.880;8.328;2023-03-24T01:17:50;3.53;;;2.65;;
7031;SDS011;3557;48.880;8.328;2023-03-24T01:20:18;3.22;;;2.58;;
7031;SDS011;3557;48.880;8.328;2023-03-24T01:22:47;4.80;;;2.85;;
7031;SDS011;3557;48.880;8.328;2023-03-24T01:25:16;6.05;;;2.65;;
7031;SDS011;3557;48.880;8.328;2023-03-24T01:27:48;5.47;;;2.67;;
7031;SDS011;3557;48.880;8.328;2023-03-24T01:30:19;6.03;;;2.90;;
7031;SDS011;3557;48.880;8.328;2023-03-24T01:32:49;4.30;;;2.50;;
7031;SDS011;3557;48.880;8.328;2023-03-24T01:35:17;5.25;;;2.65;;
7031;SDS011;3557;48.880;8.328;2023-03-24T01:37:45;6.22;;;2.60;;
7031;SDS011;3557;48.880;8.328;2023-03-24T01:40:15;4.72;;;2.53;;
7031;SDS011;3557;48.880;8.328;2023-03-24T01:42:46;4.47;;;2.90;;
7031;SDS011;3557;48.880;8.328;2023-03-24T01:48:26;4.15;;;2.60;;
7031;SDS011;3557;48.880;8.328;2023-03-24T01:50:58;4.80;;;2.97;;
7031;SDS011;3557;48.880;8.328;2023-03-24T01:53:28;3.42;;;2.58;;
7031;SDS011;3557;48.880;8.328;2023-03-24T01:55:57;4.47;;;3.10;;
7031;SDS011;3557;48.880;8.328;2023-03-24T01:58:30;2.83;;;2.40;;
7031;SDS011;3557;48.880;8.328;2023-03-24T02:01:09;4.30;;;2.55;;
7031;SDS011;3557;48.880;8.328;2023-03-24T02:04:09;3.00;;;2.70;;
7031;SDS011;3557;48.880;8.328;2023-03-24T02:06:39;4.38;;;2.88;;
7031;SDS011;3557;48.880;8.328;2023-03-24T02:09:11;4.15;;;2.63;;
7031;SDS011;3557;48.880;8.328;2023-03-24T02:11:40;4.55;;;2.85;;
7031;SDS011;3557;48.880;8.328;2023-03-24T02:14:08;3.75;;;2.50;;
7031;SDS011;3557;48.880;8.328;2023-03-24T02:16:57;3.00;;;2.40;;
7031;SDS011;3557;48.880;8.328;2023-03-24T02:26:51;4.53;;;2.78;;
7031;SDS011;3557;48.880;8.328;2023-03-24T02:32:50;3.90;;;2.60;;
7031;SDS011;3557;48.880;8.328;2023-03-24T02:36:08;4.03;;;2.45;;
7031;SDS011;3557;48.880;8.328;2023-03-24T02:39:34;5.18;;;2.85;;
7031;SDS011;3557;48.880;8.328;2023-03-24T02:42:29;4.05;;;2.50;;
7031;SDS011;3557;48.880;8.328;2023-03-24T02:45:08;3.40;;;2.75;;
7031;SDS011;3557;48.880;8.328;2023-03-24T02:47:48;5.55;;;3.00;;
7031;SDS011;3557;48.880;8.328;2023-03-24T02:50:27;4.65;;;3.03;;
7031;SDS011;3557;48.880;8.328;2023-03-24T02:53:00;4.35;;;3.05;;
7031;SDS011;3557;48.880;8.328;2023-03-24T02:55:41;4.80;;;3.00;;
7031;SDS011;3557;48.880;8.328;2023-03-24T02:58:13;4.50;;;2.90;;
7031;SDS011;3557;48.880;8.328;2023-03-24T03:00:47;4.93;;;2.90;;
7031;SDS011;3557;48.880;8.328;2023-03-24T03:03:46;4.30;;;2.67;;
7031;SDS011;3557;48.880;8.328;2023-03-24T03:06:17;5.95;;;2.70;;
7031;SDS011;3557;48.880;8.328;2023-03-24T03:08:47;4.57;;;3.17;;
7031;SDS011;3557;48.880;8.328;2023-03-24T03:11:17;4.78;;;2.80;;
7031;SDS011;3557;48.880;8.328;2023-03-24T03:13:47;4.80;;;3.05;;
7031;SDS011;3557;48.880;8.328;2023-03-24T03:16:18;5.30;;;3.38;;
7031;SDS011;3557;48.880;8.328;2023-03-24T03:18:50;4.60;;;2.97;;
7031;SDS011;3557;48.880;8.328;2023-03-24T03:21:21;4.28;;;3.08;;
7031;SDS011;3557;48.880;8.328;2023-03-24T03:23:51;4.25;;;2.40;;
7031;SDS011;3557;48.880;8.328;2023-03-24T03:26:23;4.20;;;2.65;;
7031;SDS011;3557;48.880;8.328;2023-03-24T03:28:54;2.85;;;2.38;;
7031;SDS011;3557;48.880;8.328;2023-03-24T03:31:28;2.28;;;1.80;;
7031;SDS011;3557;48.880;8.328;2023-03-24T03:34:02;2.17;;;1.70;;
7031;SDS011;3557;48.880;8.328;2023-03-24T03:36:37;2.13;;;1.60;;
7031;SDS011;3557;48.880;8.328;2023-03-24T03:39:12;2.08;;;1.65;;
7031;SDS011;3557;48.880;8.328;2023-03-24T03:41:44;3.10;;;1.90;;
7031;SDS011;3557;48.880;8.328;2023-03-24T03:44:12;1.60;;;1.50;;
7031;SDS011;3557;48.880;8.328;2023-03-24T03:46:39;1.88;;;1.70;;
7031;SDS011;3557;48.880;8.328;2023-03-24T03:49:11;4.55;;;2.10;;
7031;SDS011;3557;48.880;8.328;2023-03-24T03:51:39;1.98;;;1.70;;
7031;SDS011;3557;48.880;8.328;2023-03-24T03:54:07;3.90;;;1.65;;
7031;SDS011;3557;48.880;8.328;2023-03-24T03:56:37;2.33;;;1.85;;
7031;SDS011;3557;48.880;8.328;2023-03-24T03:59:26;2.55;;;1.75;;
7031;SDS011;3557;48.880;8.328;2023-03-24T04:01:59;1.88;;;1.60;;
7031;SDS011;3557;48.880;8.328;2023-03-24T04:08:16;2.83;;;1.85;;
7031;SDS011;3557;48.880;8.328;2023-03-24T04:11:02;2.15;;;1.95;;
7031;SDS011;3557;48.880;8.328;2023-03-24T04:14:34;3.05;;;2.00;;
7031;SDS011;3557;48.880;8.328;2023-03-24T04:20:50;4.45;;;2.28;;
7031;SDS011;3557;48.880;8.328;2023-03-24T04:23:32;2.58;;;2.03;;
7031;SDS011;3557;48.880;8.328;2023-03-24T04:26:08;2.45;;;2.08;;
7031;SDS011;3557;48.880;8.328;2023-03-24T04:28:47;2.35;;;1.85;;
7031;SDS011;3557;48.880;8.328;2023-03-24T04:31:25;3.70;;;2.35;;
7031;SDS011;3557;48.880;8.328;2023-03-24T04:33:55;2.40;;;2.20;;
7031;SDS011;3557;48.880;8.328;2023-03-24T04:36:28;2.88;;;2.60;;
7031;SDS011;3557;48.880;8.328;2023-03-24T04:39:24;3.42;;;2.78;;
7031;SDS011;3557;48.880;8.328;2023-03-24T04:41:55;3.92;;;2.70;;
7031;SDS011;3557;48.880;8.328;2023-03-24T04:44:26;3.10;;;2.42;;
7031;SDS011;3557;48.880;8.328;2023-03-24T04:47:15;3.50;;;2.80;;
7031;SDS011;3557;48.880;8.328;2023-03-24T04:50:00;5.72;;;2.72;;
7031;SDS011;3557;48.880;8.328;2023-03-24T04:52:29;4.50;;;3.13;;
7031;SDS011;3557;48.880;8.328;2023-03-24T04:54:59;3.90;;;2.83;;
7031;SDS011;3557;48.880;8.328;2023-03-24T04:57:27;4.22;;;2.80;;
7031;SDS011;3557;48.880;8.328;2023-03-24T04:59:59;3.17;;;2.70;;
7031;SDS011;3557;48.880;8.328;2023-03-24T05:02:30;3.75;;;3.30;;
7031;SDS011;3557;48.880;8.328;2023-03-24T05:05:12;5.07;;;3.50;;
7031;SDS011;3557;48.880;8.328;2023-03-24T05:07:44;3.53;;;3.22;;
7031;SDS011;3557;48.880;8.328;2023-03-24T05:10:14;5.22;;;3.67;;
7031;SDS011;3557;48.880;8.328;2023-03-24T05:12:48;5.40;;;3.78;;
7031;SDS011;3557;48.880;8.328;2023-03-24T05:15:25;5.75;;;3.60;;
7031;SDS011;3557;48.880;8.328;2023-03-24T05:18:11;6.10;;;3.92;;
7031;SDS011;3557;48.880;8.328;2023-03-24T05:20:39;5.10;;;4.32;;
7031;SDS011;3557;48.880;8.328;2023-03-24T05:23:13;6.50;;;4.20;;
7031;SDS011;3557;48.880;8.328;2023-03-24T05:25:44;6.85;;;4.65;;
7031;SDS011;3557;48.880;8.328;2023-03-24T05:28:13;6.68;;;4.22;;
7031;SDS011;3557;48.880;8.328;2023-03-24T05:30:41;7.28;;;4.38;;
7031;SDS011;3557;48.880;8.328;2023-03-24T05:33:30;5.47;;;4.03;;
7031;SDS011;3557;48.880;8.328;2023-03-24T05:35:59;4.78;;;4.13;;
7031;SDS011;3557;48.880;8.328;2023-03-24T05:38:28;6.55;;;4.50;;
7031;SDS011;3557;48.880;8.328;2023-03-24T05:40:56;5.95;;;4.20;;
7031;SDS011;3557;48.880;8.328;2023-03-24T05:43:30;4.32;;;3.70;;
7031;SDS011;3557;48.880;8.328;2023-03-24T05:46:13;6.65;;;4.50;;
7031;SDS011;3557;48.880;8.328;2023-03-24T05:48:42;4.50;;;3.65;;
7031;SDS011;3557;48.880;8.328;2023-03-24T05:51:13;6.63;;;3.92;;
7031;SDS011;3557;48.880;8.328;2023-03-24T05:53:41;4.07;;;3.67;;
7031;SDS011;3557;48.880;8.328;2023-03-24T05:56:28;3.80;;;3.40;;
7031;SDS011;3557;48.880;8.328;2023-03-24T05:59:15;3.63;;;3.00;;
7031;SDS011;3557;48.880;8.328;2023-03-24T06:02:08;7.55;;;3.20;;
7031;SDS011;3557;48.880;8.328;2023-03-24T06:04:50;3.97;;;3.20;;
7031;SDS011;3557;48.880;8.328;2023-03-24T06:07:21;3.55;;;2.90;;
7031;SDS011;3557;48.880;8.328;2023-03-24T06:09:51;3.70;;;2.95;;
7031;SDS011;3557;48.880;8.328;2023-03-24T06:12:22;4.35;;;3.10;;
7031;SDS011;3557;48.880;8.328;2023-03-24T06:15:02;3.10;;;2.90;;
7031;SDS011;3557;48.880;8.328;2023-03-24T06:17:31;3.40;;;2.88;;
7031;SDS011;3557;48.880;8.328;2023-03-24T06:20:07;3.22;;;2.92;;
7031;SDS011;3557;48.880;8.328;2023-03-24T06:22:57;4.50;;;2.75;;
7031;SDS011;3557;48.880;8.328;2023-03-24T06:25:31;3.97;;;3.15;;
7031;SDS011;3557;48.880;8.328;2023-03-24T06:28:16;3.67;;;2.70;;
7031;SDS011;3557;48.880;8.328;2023-03-24T06:30:45;2.65;;;2.45;;
7031;SDS011;3557;48.880;8.328;2023-03-24T06:33:20;2.78;;;2.55;;
7031;SDS011;3557;48.880;8.328;2023-03-24T06:35:54;3.88;;;2.33;;
7031;SDS011;3557;48.880;8.328;2023-03-24T06:38:21;3.42;;;2.72;;
7031;SDS011;3557;48.880;8.328;2023-03-24T06:40:48;3.55;;;2.80;;
7031;SDS011;3557;48.880;8.328;2023-03-24T06:43:16;3.90;;;2.60;;
7031;SDS011;3557;48.880;8.328;2023-03-24T06:45:43;3.72;;;2.72;;
7031;SDS011;3557;48.880;8.328;2023-03-24T06:48:16;3.65;;;2.83;;
7031;SDS011;3557;48.880;8.328;2023-03-24T06:50:44;4.20;;;2.63;;
7031;SDS011;3557;48.880;8.328;2023-03-24T06:53:13;4.70;;;2.78;;
7031;SDS011;3557;48.880;8.328;2023-03-24T06:55:41;2.90;;;2.55;;
7031;SDS011;3557;48.880;8.328;2023-03-24T06:58:09;3.17;;;2.67;;
7031;SDS011;3557;48.880;8.328;2023-03-24T07:01:05;3.80;;;3.30;;
7031;SDS011;3557;48.880;8.328;2023-03-24T07:03:35;3.25;;;2.90;;
7031;SDS011;3557;48.880;8.328;2023-03-24T07:06:29;5.80;;;3.88;;
7031;SDS011;3557;48.880;8.328;2023-03-24T07:09:06;5.55;;;4.13;;
7031;SDS011;3557;48.880;8.328;2023-03-24T07:11:35;9.70;;;5.70;;
7031;SDS011;3557;48.880;8.328;2023-03-24T07:14:02;7.80;;;5.40;;
7031;SDS011;3557;48.880;8.328;2023-03-24T07:16:32;8.00;;;3.97;;
7031;SDS011;3557;48.880;8.328;2023-03-24T07:19:19;5.78;;;3.70;;
7031;SDS011;3557;48.880;8.328;2023-03-24T07:21:54;4.95;;;4.07;;
7031;SDS011;3557;48.880;8.328;2023-03-24T07:24:35;6.57;;;3.95;;
7031;SDS011;3557;48.880;8.328;2023-03-24T07:27:22;4.55;;;3.45;;
7031;SDS011;3557;48.880;8.328;2023-03-24T07:29:50;4.93;;;3.45;;
7031;SDS011;3557;48.880;8.328;2023-03-24T07:32:23;3.85;;;3.20;;
7031;SDS011;3557;48.880;8.328;2023-03-24T07:34:50;3.75;;;2.95;;
7031;SDS011;3557;48.880;8.328;2023-03-24T07:37:18;3.10;;;2.80;;
7031;SDS011;3557;48.880;8.328;2023-03-24T07:39:48;3.47;;;2.80;;
7031;SDS011;3557;48.880;8.328;2023-03-24T07:42:15;2.65;;;2.33;;
7031;SDS011;3557;48.880;8.328;2023-03-24T07:45:15;3.70;;;2.53;;
7031;SDS011;3557;48.880;8.328;2023-03-24T07:47:42;3.28;;;2.30;;
7031;SDS011;3557;48.880;8.328;2023-03-24T07:50:11;2.60;;;2.30;;
7031;SDS011;3557;48.880;8.328;2023-03-24T07:52:40;3.05;;;2.53;;
7031;SDS011;3557;48.880;8.328;2023-03-24T07:55:14;4.07;;;2.30;;
7031;SDS011;3557;48.880;8.328;2023-03-24T07:58:02;2.33;;;2.13;;
7031;SDS011;3557;48.880;8.328;2023-03-24T08:00:31;2.15;;;1.98;;
7031;SDS011;3557;48.880;8.328;2023-03-24T08:03:12;2.78;;;2.25;;
7031;SDS011;3557;48.880;8.328;2023-03-24T08:06:03;3.47;;;1.95;;
7031;SDS011;3557;48.880;8.328;2023-03-24T08:08:37;2.72;;;2.10;;
7031;SDS011;3557;48.880;8.328;2023-03-24T08:11:06;2.35;;;2.15;;
7031;SDS011;3557;48.880;8.328;2023-03-24T08:13:34;2.30;;;1.80;;
7031;SDS011;3557;48.880;8.328;2023-03-24T08:16:01;4.20;;;2.30;;
7031;SDS011;3557;48.880;8.328;2023-03-24T08:18:29;2.13;;;1.92;;
7031;SDS011;3557;48.880;8.328;2023-03-24T08:20:59;1.70;;;1.60;;
7031;SDS011;3557;48.880;8.328;2023-03-24T08:23:27;2.13;;;1.60;;
7031;SDS011;3557;48.880;8.328;2023-03-24T08:25:54;2.88;;;1.73;;
7031;SDS011;3557;48.880;8.328;2023-03-24T08:28:23;1.63;;;1.52;;
7031;SDS011;3557;48.880;8.328;2023-03-24T08:30:50;1.75;;;1.65;;
7031;SDS011;3557;48.880;8.328;2023-03-24T08:33:18;1.60;;;1.50;;
7031;SDS011;3557;48.880;8.328;2023-03-24T08:35:45;2.10;;;1.60;;
7031;SDS011;3557;48.880;8.328;2023-03-24T08:38:13;1.58;;;1.48;;
7031;SDS011;3557;48.880;8.328;2023-03-24T08:40:40;1.60;;;1.50;;
7031;SDS011;3557;48.880;8.328;2023-03-24T08:43:11;1.75;;;1.60;;
7031;SDS011;3557;48.880;8.328;2023-03-24T08:45:42;2.35;;;1.33;;
7031;SDS011;3557;48.880;8.328;2023-03-24T08:48:10;1.88;;;1.50;;
7031;SDS011;3557;48.880;8.328;2023-03-24T08:50:38;1.48;;;1.38;;
7031;SDS011;3557;48.880;8.328;2023-03-24T08:53:07;2.40;;;1.55;;
7031;SDS011;3557;48.880;8.328;2023-03-24T08:55:36;1.58;;;1.48;;
7031;SDS011;3557;48.880;8.328;2023-03-24T08:58:05;1.58;;;1.48;;
7031;SDS011;3557;48.880;8.328;2023-03-24T09:00:33;2.80;;;1.80;;
7031;SDS011;3557;48.880;8.328;2023-03-24T09:03:02;2.00;;;1.58;;
7031;SDS011;3557;48.880;8.328;2023-03-24T09:05:30;2.33;;;1.90;;
7031;SDS011;3557;48.880;8.328;2023-03-24T09:07:58;2.45;;;1.80;;
7031;SDS011;3557;48.880;8.328;2023-03-24T09:10:27;1.63;;;1.50;;
7031;SDS011;3557;48.880;8.328;2023-03-24T09:12:54;1.73;;;1.63;;
7031;SDS011;3557;48.880;8.328;2023-03-24T09:15:22;2.38;;;1.52;;
7031;SDS011;3557;48.880;8.328;2023-03-24T09:17:49;1.73;;;1.60;;
7031;SDS011;3557;48.880;8.328;2023-03-24T09:20:18;2.00;;;1.77;;
7031;SDS011;3557;48.880;8.328;2023-03-24T09:22:46;1.60;;;1.50;;
7031;SDS011;3557;48.880;8.328;2023-03-24T09:25:14;1.55;;;1.45;;
7031;SDS011;3557;48.880;8.328;2023-03-24T09:27:43;2.10;;;1.67;;
7031;SDS011;3557;48.880;8.328;2023-03-24T09:30:11;2.35;;;1.50;;
7031;SDS011;3557;48.880;8.328;2023-03-24T09:32:41;1.60;;;1.50;;
7031;SDS011;3557;48.880;8.328;2023-03-24T09:35:09;1.50;;;1.40;;
7031;SDS011;3557;48.880;8.328;2023-03-24T09:37:39;1.50;;;1.40;;
7031;SDS011;3557;48.880;8.328;2023-03-24T09:40:09;1.83;;;1.48;;
7031;SDS011;3557;48.880;8.328;2023-03-24T09:42:45;2.08;;;1.55;;
7031;SDS011;3557;48.880;8.328;2023-03-24T09:45:18;1.60;;;1.50;;
7031;SDS011;3557;48.880;8.328;2023-03-24T09:47:47;1.48;;;1.38;;
7031;SDS011;3557;48.880;8.328;2023-03-24T09:50:19;1.50;;;1.40;;
7031;SDS011;3557;48.880;8.328;2023-03-24T09:52:51;1.80;;;1.33;;
7031;SDS011;3557;48.880;8.328;2023-03-24T09:55:23;1.60;;;1.40;;
7031;SDS011;3557;48.880;8.328;2023-03-24T09:57:52;2.22;;;1.48;;
7031;SDS011;3557;48.880;8.328;2023-03-24T10:00:22;1.60;;;1.40;;
7031;SDS011;3557;48.880;8.328;2023-03-24T10:02:52;1.70;;;1.45;;
7031;SDS011;3557;48.880;8.328;2023-03-24T10:05:24;1.48;;;1.38;;
7031;SDS011;3557;48.880;8.328;2023-03-24T10:07:56;1.50;;;1.40;;
7031;SDS011;3557;48.880;8.328;2023-03-24T10:10:30;2.00;;;1.58;;
7031;SDS011;3557;48.880;8.328;2023-03-24T10:13:04;1.45;;;1.35;;
7031;SDS011;3557;48.880;8.328;2023-03-24T10:15:35;2.75;;;1.50;;
7031;SDS011;3557;48.880;8.328;2023-03-24T10:18:13;2.03;;;1.60;;
7031;SDS011;3557;48.880;8.328;2023-03-24T10:20:53;2.03;;;1.40;;
7031;SDS011;3557;48.880;8.328;2023-03-24T10:23:26;1.50;;;1.40;;
7031;SDS011;3557;48.880;8.328;2023-03-24T10:25:59;2.10;;;1.80;;
7031;SDS011;3557;48.880;8.328;2023-03-24T10:28:34;1.75;;;1.50;;
7031;SDS011;3557;48.880;8.328;2023-03-24T10:31:07;1.60;;;1.50;;
7031;SDS011;3557;48.880;8.328;2023-03-24T10:33:38;1.77;;;1.50;;
7031;SDS011;3557;48.880;8.328;2023-03-24T10:36:09;1.48;;;1.38;;
7031;SDS011;3557;48.880;8.328;2023-03-24T10:38:40;2.33;;;1.60;;
7031;SDS011;3557;48.880;8.328;2023-03-24T10:41:11;1.50;;;1.40;;
7031;SDS011;3557;48.880;8.328;2023-03-24T10:43:42;1.67;;;1.52;;
7031;SDS011;3557;48.880;8.328;2023-03-24T10:46:11;1.58;;;1.48;;
7031;SDS011;3557;48.880;8.328;2023-03-24T10:48:42;1.70;;;1.60;;
7031;SDS011;3557;48.880;8.328;2023-03-24T10:51:13;2.10;;;1.25;;
7031;SDS011;3557;48.880;8.328;2023-03-24T10:53:44;1.50;;;1.40;;
7031;SDS011;3557;48.880;8.328;2023-03-24T10:56:16;1.73;;;1.40;;
7031;SDS011;3557;48.880;8.328;2023-03-24T10:58:47;1.60;;;1.50;;
7031;SDS011;3557;48.880;8.328;2023-03-24T11:01:22;3.70;;;1.60;;
7031;SDS011;3557;48.880;8.328;2023-03-24T11:03:51;1.58;;;1.48;;
7031;SDS011;3557;48.880;8.328;2023-03-24T11:06:23;1.80;;;1.70;;
7031;SDS011;3557;48.880;8.328;2023-03-24T11:11:42;2.58;;;1.73;;
7031;SDS011;3557;48.880;8.328;2023-03-24T11:14:17;1.50;;;1.40;;
7031;SDS011;3557;48.880;8.328;2023-03-24T11:16:48;1.50;;;1.40;;
7031;SDS011;3557;48.880;8.328;2023-03-24T11:19:17;3.33;;;1.60;;
7031;SDS011;3557;48.880;8.328;2023-03-24T11:21:47;1.50;;;1.40;;
7031;SDS011;3557;48.880;8.328;2023-03-24T11:24:17;1.52;;;1.42;;
7031;SDS011;3557;48.880;8.328;2023-03-24T11:26:48;1.58;;;1.48;;
7031;SDS011;3557;48.880;8.328;2023-03-24T11:29:21;1.52;;;1.42;;
7031;SDS011;3557;48.880;8.328;2023-03-24T11:31:53;2.03;;;1.65;;
7031;SDS011;3557;48.880;8.328;2023-03-24T11:34:23;1.58;;;1.48;;
7031;SDS011;3557;48.880;8.328;2023-03-24T11:36:59;2.92;;;2.08;;
7031;SDS011;3557;48.880;8.328;2023-03-24T11:39:27;3.78;;;2.05;;
7031;SDS011;3557;48.880;8.328;2023-03-24T11:42:05;3.65;;;1.88;;
7031;SDS011;3557;48.880;8.328;2023-03-24T11:44:42;2.10;;;1.88;;
7031;SDS011;3557;48.880;8.328;2023-03-24T11:47:22;2.13;;;1.70;;
7031;SDS011;3557;48.880;8.328;2023-03-24T11:49:56;1.98;;;1.77;;
7031;SDS011;3557;48.880;8.328;2023-03-24T11:52:32;1.90;;;1.70;;
7031;SDS011;3557;48.880;8.328;2023-03-24T11:55:03;2.38;;;1.60;;
7031;SDS011;3557;48.880;8.328;2023-03-24T11:57:44;2.03;;;1.60;;
7031;SDS011;3557;48.880;8.328;2023-03-24T12:00:18;2.08;;;1.70;;
7031;SDS011;3557;48.880;8.328;2023-03-24T12:02:57;1.85;;;1.20;;
7031;SDS011;3557;48.880;8.328;2023-03-24T12:06:00;1.90;;;1.70;;
7031;SDS011;3557;48.880;8.328;2023-03-24T12:08:39;2.35;;;1.67;;
7031;SDS011;3557;48.880;8.328;2023-03-24T12:11:15;3.92;;;1.80;;
7031;SDS011;3557;48.880;8.328;2023-03-24T12:13:48;1.92;;;1.40;;
7031;SDS011;3557;48.880;8.328;2023-03-24T12:16:20;2.47;;;1.27;;
7031;SDS011;3557;48.880;8.328;2023-03-24T12:19:05;1.73;;;1.20;;
7031;SDS011;3557;48.880;8.328;2023-03-24T12:22:02;3.70;;;1.42;;
7031;SDS011;3557;48.880;8.328;2023-03-24T12:24:44;4.82;;;1.40;;
7031;SDS011;3557;48.880;8.328;2023-03-24T12:27:26;4.75;;;1.30;;
7031;SDS011;3557;48.880;8.328;2023-03-24T12:30:01;3.45;;;1.45;;
7031;SDS011;3557;48.880;8.328;2023-03-24T12:32:35;3.08;;;1.48;;
7031;SDS011;3557;48.880;8.328;2023-03-24T12:35:14;6.28;;;1.90;;
7031;SDS011;3557;48.880;8.328;2023-03-24T12:37:57;3.70;;;1.40;;
7031;SDS011;3557;48.880;8.328;2023-03-24T12:40:37;5.10;;;1.20;;
7031;SDS011;3557;48.880;8.328;2023-03-24T12:43:46;3.83;;;1.48;;
7031;SDS011;3557;48.880;8.328;2023-03-24T12:46:27;3.35;;;1.60;;
7031;SDS011;3557;48.880;8.328;2023-03-24T12:49:04;3.67;;;2.00;;
7031;SDS011;3557;48.880;8.328;2023-03-24T12:51:46;4.70;;;1.75;;
7031;SDS011;3557;48.880;8.328;2023-03-24T12:54:22;3.97;;;1.45;;
7031;SDS011;3557;48.880;8.328;2023-03-24T12:56:57;4.72;;;1.80;;
7031;SDS011;3557;48.880;8.328;2023-03-24T12:59:28;5.63;;;2.08;;
7031;SDS011;3557;48.880;8.328;2023-03-24T13:02:02;5.05;;;2.17;;
7031;SDS011;3557;48.880;8.328;2023-03-24T13:04:38;10.55;;;7.47;;
7031;SDS011;3557;48.880;8.328;2023-03-24T13:07:08;12.63;;;3.38;;
7031;SDS011;3557;48.880;8.328;2023-03-24T13:09:41;5.80;;;2.00;;
7031;SDS011;3557;48.880;8.328;2023-03-24T13:12:12;9.77;;;3.85;;
7031;SDS011;3557;48.880;8.328;2023-03-24T13:14:54;7.22;;;2.35;;
7031;SDS011;3557;48.880;8.328;2023-03-24T13:17:28;4.32;;;1.90;;
7031;SDS011;3557;48.880;8.328;2023-03-24T13:19:58;3.55;;;1.63;;
7031;SDS011;3557;48.880;8.328;2023-03-24T13:22:30;5.28;;;1.70;;
7031;SDS011;3557;48.880;8.328;2023-03-24T13:24:59;3.95;;;1.70;;
7031;SDS011;3557;48.880;8.328;2023-03-24T13:27:28;4.05;;;2.50;;
7031;SDS011;3557;48.880;8.328;2023-03-24T13:32:59;6.13;;;2.10;;
7031;SDS011;3557;48.880;8.328;2023-03-24T13:35:36;6.45;;;1.90;;
7031;SDS011;3557;48.880;8.328;2023-03-24T13:38:28;4.13;;;2.10;;
7031;SDS011;3557;48.880;8.328;2023-03-24T13:41:02;5.30;;;1.92;;
7031;SDS011;3557;48.880;8.328;2023-03-24T13:43:31;2.20;;;1.80;;
7031;SDS011;3557;48.880;8.328;2023-03-24T13:46:00;3.25;;;2.22;;
7031;SDS011;3557;48.880;8.328;2023-03-24T13:48:31;3.58;;;1.80;;
7031;SDS011;3557;48.880;8.328;2023-03-24T13:51:02;4.15;;;1.73;;
7031;SDS011;3557;48.880;8.328;2023-03-24T13:53:35;8.40;;;2.40;;
7031;SDS011;3557;48.880;8.328;2023-03-24T13:56:05;3.63;;;2.10;;
7031;SDS011;3557;48.880;8.328;2023-03-24T13:58:44;3.03;;;2.08;;
7031;SDS011;3557;48.880;8.328;2023-03-24T14:01:16;3.00;;;1.90;;
7031;SDS011;3557;48.880;8.328;2023-03-24T14:06:55;1.98;;;1.45;;
7031;SDS011;3557;48.880;8.328;2023-03-24T14:09:24;2.03;;;1.60;;
7031;SDS011;3557;48.880;8.328;2023-03-24T14:12:15;2.28;;;1.50;;
7031;SDS011;3557;48.880;8.328;2023-03-24T14:17:46;2.33;;;1.67;;
7031;SDS011;3557;48.880;8.328;2023-03-24T14:20:24;2.10;;;1.50;;
7031;SDS011;3557;48.880;8.328;2023-03-24T14:22:57;1.40;;;1.30;;
7031;SDS011;3557;48.880;8.328;2023-03-24T14:25:25;2.63;;;1.75;;
7031;SDS011;3557;48.880;8.328;2023-03-24T14:28:06;1.75;;;1.40;;
7031;SDS011;3557;48.880;8.328;2023-03-24T14:30:56;2.95;;;1.85;;
7031;SDS011;3557;48.880;8.328;2023-03-24T14:33:37;1.85;;;1.40;;
7031;SDS011;3557;48.880;8.328;2023-03-24T14:36:07;2.20;;;1.65;;
7031;SDS011;3557;48.880;8.328;2023-03-24T14:38:39;1.40;;;1.30;;
7031;SDS011;3557;48.880;8.328;2023-03-24T14:41:10;2.05;;;1.50;;
7031;SDS011;3557;48.880;8.328;2023-03-24T14:43:54;2.00;;;1.50;;
7031;SDS011;3557;48.880;8.328;2023-03-24T14:46:39;1.35;;;1.25;;
7031;SDS011;3557;48.880;8.328;2023-03-24T14:49:19;1.27;;;1.10;;
7031;SDS011;3557;48.880;8.328;2023-03-24T14:51:53;1.42;;;1.30;;
7031;SDS011;3557;48.880;8.328;2023-03-24T14:54:27;2.95;;;1.83;;
7031;SDS011;3557;48.880;8.328;2023-03-24T14:56:59;2.83;;;1.80;;
7031;SDS011;3557;48.880;8.328;2023-03-24T14:59:29;2.50;;;1.88;;
7031;SDS011;3557;48.880;8.328;2023-03-24T15:02:04;1.38;;;1.20;;
7031;SDS011;3557;48.880;8.328;2023-03-24T15:08:07;1.20;;;1.10;;
7031;SDS011;3557;48.880;8.328;2023-03-24T15:10:41;1.58;;;1.25;;
7031;SDS011;3557;48.880;8.328;2023-03-24T15:16:04;1.95;;;1.33;;
7031;SDS011;3557;48.880;8.328;2023-03-24T15:18:42;1.10;;;1.00;;
7031;SDS011;3557;48.880;8.328;2023-03-24T15:21:13;1.10;;;1.10;;
7031;SDS011;3557;48.880;8.328;2023-03-24T15:23:46;1.42;;;1.17;;
7031;SDS011;3557;48.880;8.328;2023-03-24T15:26:15;0.95;;;0.93;;
7031;SDS011;3557;48.880;8.328;2023-03-24T15:28:52;0.80;;;0.80;;
7031;SDS011;3557;48.880;8.328;2023-03-24T15:31:22;1.08;;;0.98;;
7031;SDS011;3557;48.880;8.328;2023-03-24T15:34:00;1.02;;;1.00;;
7031;SDS011;3557;48.880;8.328;2023-03-24T15:36:33;1.92;;;1.15;;
7031;SDS011;3557;48.880;8.328;2023-03-24T15:39:18;1.60;;;1.15;;
7031;SDS011;3557;48.880;8.328;2023-03-24T15:41:48;1.33;;;1.23;;
7031;SDS011;3557;48.880;8.328;2023-03-24T15:44:18;1.30;;;1.20;;
7031;SDS011;3557;48.880;8.328;2023-03-24T15:46:47;1.70;;;1.15;;
7031;SDS011;3557;48.880;8.328;2023-03-24T15:49:17;1.17;;;1.08;;
7031;SDS011;3557;48.880;8.328;2023-03-24T15:51:51;1.25;;;1.15;;
7031;SDS011;3557;48.880;8.328;2023-03-24T15:54:25;1.40;;;1.27;;
7031;SDS011;3557;48.880;8.328;2023-03-24T15:56:59;1.08;;;1.08;;
7031;SDS011;3557;48.880;8.328;2023-03-24T15:59:33;1.00;;;1.00;;
7031;SDS011;3557;48.880;8.328;2023-03-24T16:02:02;1.13;;;1.00;;
7031;SDS011;3557;48.880;8.328;2023-03-24T16:04:32;1.08;;;0.98;;
7031;SDS011;3557;48.880;8.328;2023-03-24T16:07:02;1.30;;;1.20;;
7031;SDS011;3557;48.880;8.328;2023-03-24T16:09:35;1.25;;;1.15;;
7031;SDS011;3557;48.880;8.328;2023-03-24T16:12:08;3.50;;;1.20;;
7031;SDS011;3557;48.880;8.328;2023-03-24T16:14:36;2.22;;;1.20;;
7031;SDS011;3557;48.880;8.328;2023-03-24T16:17:03;1.45;;;1.15;;
7031;SDS011;3557;48.880;8.328;2023-03-24T16:19:31;1.02;;;1.00;;
7031;SDS011;3557;48.880;8.328;2023-03-24T16:21:58;1.77;;;1.35;;
7031;SDS011;3557;48.880;8.328;2023-03-24T16:24:26;2.30;;;1.17;;
7031;SDS011;3557;48.880;8.328;2023-03-24T16:26:55;1.45;;;1.27;;
7031;SDS011;3557;48.880;8.328;2023-03-24T16:29:22;2.67;;;1.00;;
7031;SDS011;3557;48.880;8.328;2023-03-24T16:31:50;1.52;;;1.20;;
7031;SDS011;3557;48.880;8.328;2023-03-24T16:34:20;1.40;;;1.30;;